Terminal Aerodrome Forecast
Issued by NWS Midland/Odessa, TX

Home | Current Version | Previous Version | Text Only | Print | Product List | Glossary On
Versions: 1 2 3 4 5 6 7 8 9 10 11 12 13 14 15 16 17 18 19 20
000
FTUS44 KMAF 240000 AAA
TAFMAF
TAF AMD
KMAF 240032Z 2401/2424 10010G18KT P6SM FEW100
     FM240100 12008KT P6SM FEW100
      TEMPO 2401/2402 VRB18G28KT TSRA BKN070CB
     FM242100 12010G17KT P6SM FEW200=

USA.gov is the U.S. government's official web portal to all federal, state and local government web resources and services.